createdAt,value
2023-05-03T00:01:45.152Z,2.25
2023-05-03T00:04:15.800Z,2.78
2023-05-03T00:06:44.424Z,2.42
2023-05-03T00:09:12.224Z,2.47
2023-05-03T00:14:09.309Z,2.00
2023-05-03T00:16:36.837Z,2.10
2023-05-03T00:19:04.576Z,2.10
2023-05-03T00:21:31.991Z,2.40
2023-05-03T00:23:59.483Z,1.92
2023-05-03T00:26:27.981Z,1.95
2023-05-03T00:28:55.445Z,2.20
2023-05-03T00:31:22.877Z,2.37
2023-05-03T00:33:50.661Z,2.42
2023-05-03T00:36:18.068Z,2.33
2023-05-03T00:38:45.528Z,2.12
2023-05-03T00:41:13.425Z,2.60
2023-05-03T00:43:40.836Z,1.75
2023-05-03T00:46:16.900Z,2.08
2023-05-03T00:48:48.564Z,2.10
2023-05-03T00:51:16.474Z,2.20
2023-05-03T00:53:44.075Z,2.10
2023-05-03T00:56:12.114Z,2.15
2023-05-03T00:58:40.730Z,2.40
2023-05-03T01:01:08.912Z,2.25
2023-05-03T01:03:37.790Z,1.80
2023-05-03T01:06:13.990Z,2.12
2023-05-03T01:08:47.107Z,2.10
2023-05-03T01:11:23.895Z,2.05
2023-05-03T01:14:01.174Z,1.98
2023-05-03T01:16:33.010Z,2.10
2023-05-03T01:19:02.768Z,1.95
2023-05-03T01:21:31.075Z,2.12
2023-05-03T01:24:08.383Z,2.10
2023-05-03T01:26:36.233Z,2.50
2023-05-03T01:29:04.026Z,2.03
2023-05-03T01:31:43.662Z,2.17
2023-05-03T01:34:17.297Z,1.87
2023-05-03T01:36:44.972Z,1.90
2023-05-03T01:39:21.210Z,1.90
2023-05-03T01:41:50.545Z,2.53
2023-05-03T01:44:19.815Z,2.40
2023-05-03T01:46:47.645Z,2.17
2023-05-03T01:49:15.072Z,2.00
2023-05-03T01:51:42.993Z,2.20
2023-05-03T01:54:11.930Z,2.37
2023-05-03T01:56:39.361Z,1.95
2023-05-03T01:59:07.111Z,1.92
2023-05-03T02:01:34.736Z,2.00
2023-05-03T02:04:02.545Z,1.98
2023-05-03T02:06:30.083Z,1.90
2023-05-03T02:08:59.965Z,1.95
2023-05-03T02:11:27.718Z,2.10
2023-05-03T02:13:55.141Z,1.90
2023-05-03T02:16:22.890Z,2.08
2023-05-03T02:18:51.932Z,2.35
2023-05-03T02:21:19.368Z,2.08
2023-05-03T02:23:47.102Z,2.20
2023-05-03T02:26:14.966Z,1.90
2023-05-03T02:28:42.433Z,1.90
2023-05-03T02:31:10.110Z,2.20
2023-05-03T02:33:37.971Z,2.20
2023-05-03T02:36:05.826Z,2.55
2023-05-03T02:38:33.537Z,2.45
2023-05-03T02:41:01.083Z,2.45
2023-05-03T02:43:28.622Z,2.30
2023-05-03T02:45:57.983Z,2.80
2023-05-03T02:48:25.820Z,1.90
2023-05-03T02:50:55.016Z,2.87
2023-05-03T02:53:23.061Z,2.92
2023-05-03T02:55:51.302Z,2.62
2023-05-03T02:58:18.782Z,2.58
2023-05-03T03:00:46.590Z,2.60
2023-05-03T03:03:16.358Z,2.65
2023-05-03T03:05:43.957Z,2.70
2023-05-03T03:08:11.659Z,3.03
2023-05-03T03:10:39.469Z,2.55
2023-05-03T03:13:06.874Z,2.70
2023-05-03T03:15:34.984Z,2.83
2023-05-03T03:18:02.475Z,2.37
2023-05-03T03:20:30.537Z,3.00
2023-05-03T03:22:58.292Z,2.62
2023-05-03T03:25:27.029Z,3.12
2023-05-03T03:27:56.264Z,2.90
2023-05-03T03:30:23.976Z,2.47
2023-05-03T03:32:52.782Z,3.12
2023-05-03T03:35:22.708Z,2.72
2023-05-03T03:37:51.702Z,2.70
2023-05-03T03:40:19.533Z,2.75
2023-05-03T03:42:47.620Z,2.90
2023-05-03T03:45:15.302Z,3.10
2023-05-03T03:47:42.768Z,3.30
2023-05-03T03:50:10.671Z,2.92
2023-05-03T03:52:39.553Z,2.67
2023-05-03T03:55:07.693Z,2.62
2023-05-03T03:57:35.131Z,3.08
2023-05-03T04:00:10.513Z,2.58
2023-05-03T04:02:39.915Z,3.53
2023-05-03T04:05:09.470Z,2.95
2023-05-03T04:07:37.003Z,3.00
2023-05-03T04:10:05.340Z,3.17
2023-05-03T04:12:34.185Z,2.87
2023-05-03T04:15:02.420Z,3.12
2023-05-03T04:17:29.926Z,3.28
2023-05-03T04:19:57.705Z,2.90
2023-05-03T04:22:25.214Z,3.15
2023-05-03T04:24:54.733Z,3.33
2023-05-03T04:27:22.392Z,3.00
2023-05-03T04:29:50.791Z,2.90
2023-05-03T04:32:23.262Z,3.67
2023-05-03T04:34:53.895Z,2.90
2023-05-03T04:37:23.224Z,3.03
2023-05-03T04:39:51.142Z,2.83
2023-05-03T04:42:19.435Z,2.60
2023-05-03T04:44:47.601Z,2.62
2023-05-03T04:47:15.365Z,2.90
2023-05-03T04:49:42.817Z,2.70
2023-05-03T04:52:10.672Z,2.78
2023-05-03T04:54:38.492Z,2.62
2023-05-03T04:57:07.157Z,2.25
2023-05-03T04:59:34.611Z,2.67
2023-05-03T05:02:02.547Z,3.35
2023-05-03T05:04:30.473Z,2.78
2023-05-03T05:06:59.371Z,2.95
2023-05-03T05:11:57.302Z,2.85
2023-05-03T05:14:26.714Z,2.50
2023-05-03T05:16:54.725Z,2.30
2023-05-03T05:19:22.208Z,2.90
2023-05-03T05:21:49.678Z,2.50
2023-05-03T05:24:17.594Z,2.37
2023-05-03T05:26:45.266Z,2.50
2023-05-03T05:29:13.438Z,2.50
2023-05-03T05:31:41.410Z,2.58
2023-05-03T05:34:08.926Z,2.42
2023-05-03T05:36:37.018Z,2.42
2023-05-03T05:39:05.414Z,2.45
2023-05-03T05:41:33.071Z,2.67
2023-05-03T05:44:00.777Z,2.95
2023-05-03T05:46:29.128Z,2.72
2023-05-03T05:48:56.592Z,2.47
2023-05-03T05:51:24.093Z,2.67
2023-05-03T05:53:52.036Z,2.58
2023-05-03T05:56:20.092Z,1.87
2023-05-03T06:04:25.809Z,2.17
2023-05-03T06:06:53.741Z,2.15
2023-05-03T06:09:24.665Z,2.60
2023-05-03T06:11:53.731Z,2.83
2023-05-03T06:14:21.808Z,2.70
2023-05-03T06:16:49.762Z,2.50
2023-05-03T06:19:17.476Z,2.33
2023-05-03T06:21:44.880Z,2.35
2023-05-03T06:29:57.758Z,2.40
2023-05-03T06:32:25.186Z,2.12
2023-05-03T06:34:53.605Z,2.42
2023-05-03T06:37:21.415Z,2.53
2023-05-03T06:39:50.515Z,2.60
2023-05-03T06:42:32.977Z,2.47
2023-05-03T06:51:18.750Z,2.70
2023-05-03T06:53:46.481Z,2.22
2023-05-03T06:56:13.853Z,2.22
2023-05-03T06:58:41.331Z,2.17
2023-05-03T07:01:09.124Z,2.60
2023-05-03T07:06:44.267Z,2.15
2023-05-03T07:09:43.213Z,2.20
2023-05-03T07:12:33.750Z,1.90
2023-05-03T07:21:36.808Z,2.12
2023-05-03T07:24:04.737Z,2.25
2023-05-03T07:26:32.168Z,2.20
2023-05-03T07:28:59.544Z,2.20
2023-05-03T07:31:27.210Z,2.40
2023-05-03T07:33:54.857Z,2.37
2023-05-03T07:36:22.425Z,2.15
2023-05-03T07:38:50.035Z,2.42
2023-05-03T07:41:17.535Z,2.20
2023-05-03T07:43:47.034Z,2.30
2023-05-03T07:49:17.814Z,2.35
2023-05-03T07:51:45.463Z,2.22
2023-05-03T07:54:25.902Z,1.95
2023-05-03T07:57:00.654Z,2.37
2023-05-03T08:02:28.070Z,2.53
2023-05-03T08:04:56.520Z,2.55
2023-05-03T08:07:24.098Z,2.20
2023-05-03T08:09:53.677Z,2.40
2023-05-03T08:12:21.410Z,2.00
2023-05-03T08:14:48.849Z,2.25
2023-05-03T08:17:16.291Z,2.10
2023-05-03T08:19:44.033Z,2.20
2023-05-03T08:22:12.485Z,2.25
2023-05-03T08:24:39.910Z,2.05
2023-05-03T08:27:08.248Z,2.37
2023-05-03T08:29:37.638Z,2.50
2023-05-03T08:32:05.197Z,2.15
2023-05-03T08:34:33.022Z,2.20
2023-05-03T08:37:00.453Z,2.10
2023-05-03T08:39:28.040Z,2.17
2023-05-03T08:41:55.896Z,2.37
2023-05-03T08:44:24.216Z,2.03
2023-05-03T08:46:52.585Z,2.37
2023-05-03T08:49:21.606Z,2.37
2023-05-03T08:51:49.852Z,2.15
2023-05-03T08:54:18.330Z,2.20
2023-05-03T08:56:47.375Z,2.10
2023-05-03T08:59:17.120Z,2.20
2023-05-03T09:01:44.694Z,2.20
2023-05-03T09:04:12.903Z,2.45
2023-05-03T09:06:40.543Z,3.60
2023-05-03T09:09:08.664Z,4.03
2023-05-03T09:11:37.954Z,4.30
2023-05-03T09:14:09.038Z,4.10
2023-05-03T09:16:36.822Z,4.97
2023-05-03T09:19:06.281Z,4.00
2023-05-03T09:21:33.742Z,4.25
2023-05-03T09:24:04.036Z,4.03
2023-05-03T09:26:33.108Z,3.78
2023-05-03T09:29:02.990Z,3.97
2023-05-03T09:31:31.350Z,3.97
2023-05-03T09:33:58.797Z,4.10
2023-05-03T09:36:27.661Z,4.22
2023-05-03T09:38:56.046Z,3.80
2023-05-03T09:41:30.404Z,4.03
2023-05-03T09:44:02.845Z,3.85
2023-05-03T09:46:30.417Z,4.00
2023-05-03T09:48:58.381Z,3.90
2023-05-03T09:51:26.267Z,3.40
2023-05-03T09:53:53.774Z,4.15
2023-05-03T09:56:26.422Z,4.18
2023-05-03T09:58:54.387Z,3.40
2023-05-03T10:01:25.333Z,4.03
2023-05-03T10:03:54.418Z,3.62
2023-05-03T10:06:32.692Z,3.55
2023-05-03T10:09:23.277Z,3.40
2023-05-03T10:11:52.684Z,3.40
2023-05-03T10:14:21.402Z,3.47
2023-05-03T10:16:50.052Z,3.10
2023-05-03T10:19:27.990Z,3.42
2023-05-03T10:22:08.594Z,3.60
2023-05-03T10:24:56.709Z,3.08
2023-05-03T10:27:24.171Z,3.10
2023-05-03T10:29:52.203Z,3.33
2023-05-03T10:32:43.333Z,3.50
2023-05-03T10:35:14.398Z,3.15
2023-05-03T10:37:42.496Z,3.12
2023-05-03T10:40:14.172Z,3.50
2023-05-03T10:42:54.794Z,3.22
2023-05-03T10:45:28.263Z,3.22
2023-05-03T10:48:11.130Z,3.17
2023-05-03T10:50:39.100Z,3.17
2023-05-03T10:53:06.804Z,2.70
2023-05-03T10:55:34.224Z,2.87
2023-05-03T10:58:01.778Z,2.62
2023-05-03T11:00:41.566Z,3.00
2023-05-03T11:03:23.655Z,2.62
2023-05-03T11:05:52.302Z,2.58
2023-05-03T11:08:21.146Z,2.83
2023-05-03T11:10:49.803Z,2.83
2023-05-03T11:13:17.478Z,2.60
2023-05-03T11:15:46.912Z,2.65
2023-05-03T11:18:15.926Z,2.75
2023-05-03T11:20:43.607Z,2.80
2023-05-03T11:23:11.459Z,2.75
2023-05-03T11:25:39.318Z,2.58
2023-05-03T11:28:07.104Z,2.60
2023-05-03T11:30:35.090Z,2.50
2023-05-03T11:33:02.755Z,2.60
2023-05-03T11:35:30.699Z,2.80
2023-05-03T11:37:58.197Z,2.33
2023-05-03T11:40:26.102Z,2.67
2023-05-03T11:42:58.665Z,2.62
2023-05-03T11:45:26.795Z,2.85
2023-05-03T11:47:54.585Z,2.60
2023-05-03T11:50:55.615Z,2.70
2023-05-03T11:53:24.453Z,2.33
2023-05-03T11:55:55.102Z,2.67
2023-05-03T11:58:27.145Z,2.60
2023-05-03T12:00:55.997Z,2.65
2023-05-03T12:03:31.951Z,2.53
2023-05-03T12:06:00.521Z,2.37
2023-05-03T12:08:31.416Z,2.30
2023-05-03T12:11:03.899Z,2.87
2023-05-03T12:13:38.625Z,2.33
2023-05-03T12:16:12.895Z,2.62
2023-05-03T12:18:55.768Z,2.42
2023-05-03T12:23:57.419Z,2.58
2023-05-03T12:26:26.361Z,2.65
2023-05-03T12:28:56.718Z,2.78
2023-05-03T12:31:25.076Z,2.40
2023-05-03T12:34:22.905Z,2.60
2023-05-03T12:36:44.358Z,2.40
2023-05-03T12:39:15.950Z,2.28
2023-05-03T12:44:16.790Z,2.42
2023-05-03T12:46:45.845Z,3.00
2023-05-03T12:49:15.229Z,2.25
2023-05-03T12:51:43.425Z,2.37
2023-05-03T12:54:12.241Z,2.20
2023-05-03T12:56:41.078Z,2.28
2023-05-03T13:04:40.222Z,2.37
2023-05-03T13:07:00.578Z,2.50
2023-05-03T13:09:46.138Z,2.12
2023-05-03T13:12:20.365Z,2.50
2023-05-03T13:14:49.008Z,2.33
2023-05-03T13:17:17.121Z,2.35
2023-05-03T13:19:50.844Z,2.25
2023-05-03T13:22:18.644Z,2.12
2023-05-03T13:24:46.948Z,2.45
2023-05-03T13:27:14.706Z,2.15
2023-05-03T13:29:42.553Z,2.67
2023-05-03T13:32:10.568Z,2.15
2023-05-03T13:34:38.063Z,2.28
2023-05-03T13:37:05.996Z,2.30
2023-05-03T13:39:33.458Z,2.47
2023-05-03T13:42:01.032Z,2.37
2023-05-03T13:44:28.937Z,2.70
2023-05-03T13:46:57.069Z,2.37
2023-05-03T13:49:25.526Z,2.12
2023-05-03T13:51:53.219Z,2.33
2023-05-03T13:54:20.714Z,2.40
2023-05-03T13:56:48.370Z,2.53
2023-05-03T13:59:16.082Z,2.05
2023-05-03T14:01:43.707Z,2.42
2023-05-03T14:04:11.688Z,2.47
2023-05-03T14:06:41.297Z,2.03
2023-05-03T14:09:09.478Z,2.58
2023-05-03T14:11:38.121Z,2.30
2023-05-03T14:14:05.713Z,2.10
2023-05-03T14:19:03.972Z,2.10
2023-05-03T14:21:31.857Z,2.10
2023-05-03T14:23:59.346Z,2.17
2023-05-03T14:26:29.351Z,2.25
2023-05-03T14:28:57.102Z,1.80
2023-05-03T14:31:24.676Z,2.50
2023-05-03T14:33:52.563Z,2.10
2023-05-03T14:36:19.966Z,2.35
2023-05-03T14:38:47.482Z,2.25
2023-05-03T14:41:15.173Z,2.40
2023-05-03T14:43:42.609Z,2.10
2023-05-03T14:46:10.356Z,1.90
2023-05-03T14:48:38.387Z,1.90
2023-05-03T14:51:05.955Z,2.00
2023-05-03T14:53:33.362Z,2.17
2023-05-03T14:56:01.844Z,1.95
2023-05-03T14:58:29.351Z,2.17
2023-05-03T15:00:56.861Z,2.10
2023-05-03T15:03:24.685Z,2.10
2023-05-03T15:05:52.152Z,2.00
2023-05-03T15:08:19.734Z,2.28
2023-05-03T15:10:47.974Z,1.90
2023-05-03T15:13:16.344Z,2.17
2023-05-03T15:15:44.349Z,2.05
2023-05-03T15:18:14.412Z,2.22
2023-05-03T15:20:41.955Z,1.80
2023-05-03T15:23:09.408Z,1.92
2023-05-03T15:25:37.098Z,2.10
2023-05-03T15:28:04.898Z,2.00
2023-05-03T15:30:32.811Z,1.80
2023-05-03T15:33:01.957Z,2.03
2023-05-03T15:35:29.546Z,1.85
2023-05-03T15:37:56.996Z,1.67
2023-05-03T15:40:27.013Z,2.20
2023-05-03T15:42:54.724Z,2.30
2023-05-03T15:45:24.396Z,2.22
2023-05-03T15:47:52.832Z,2.30
2023-05-03T15:50:20.559Z,2.47
2023-05-03T15:52:48.622Z,2.37
2023-05-03T15:55:17.391Z,2.58
2023-05-03T15:57:45.564Z,2.28
2023-05-03T16:00:16.021Z,2.05
2023-05-03T16:02:43.748Z,2.37
2023-05-03T16:05:12.982Z,1.77
2023-05-03T16:07:40.436Z,1.77
2023-05-03T16:10:09.456Z,2.00
2023-05-03T16:12:37.198Z,1.90
2023-05-03T16:15:05.335Z,1.67
2023-05-03T16:17:35.455Z,1.73
2023-05-03T16:20:05.693Z,1.77
2023-05-03T16:22:33.331Z,1.90
2023-05-03T16:25:01.167Z,1.80
2023-05-03T16:27:28.749Z,1.60
2023-05-03T16:29:56.182Z,1.60
2023-05-03T16:32:24.275Z,1.58
2023-05-03T16:34:52.101Z,1.77
2023-05-03T16:37:19.808Z,1.90
2023-05-03T16:39:47.591Z,1.50
2023-05-03T16:42:15.040Z,1.60
2023-05-03T16:44:42.481Z,1.67
2023-05-03T16:47:10.896Z,1.50
2023-05-03T16:49:38.286Z,2.05
2023-05-03T16:52:05.892Z,1.48
2023-05-03T16:54:33.578Z,1.60
2023-05-03T16:57:02.187Z,1.35
2023-05-03T16:59:29.608Z,1.77
2023-05-03T17:01:59.364Z,1.65
2023-05-03T17:04:27.530Z,1.50
2023-05-03T17:06:56.181Z,1.80
2023-05-03T17:09:23.805Z,1.65
2023-05-03T17:11:51.243Z,1.83
2023-05-03T17:14:18.679Z,2.20
2023-05-03T17:16:48.814Z,2.25
2023-05-03T17:19:16.294Z,2.40
2023-05-03T17:21:43.778Z,2.00
2023-05-03T17:24:11.841Z,2.25
2023-05-03T17:26:39.661Z,2.05
2023-05-03T17:29:07.823Z,1.92
2023-05-03T17:31:35.556Z,2.40
2023-05-03T17:34:03.098Z,2.50
2023-05-03T17:36:30.825Z,2.58
2023-05-03T17:38:58.681Z,2.25
2023-05-03T17:41:26.163Z,2.12
2023-05-03T17:43:53.793Z,2.60
2023-05-03T17:46:21.690Z,2.58
2023-05-03T17:48:49.202Z,2.42
2023-05-03T17:51:16.888Z,2.47
2023-05-03T17:53:44.676Z,2.72
2023-05-03T17:56:18.431Z,2.58
2023-05-03T17:58:46.836Z,1.95
2023-05-03T18:01:16.164Z,2.33
2023-05-03T18:03:44.297Z,2.45
2023-05-03T18:06:13.187Z,2.35
2023-05-03T18:08:41.823Z,2.62
2023-05-03T18:11:11.001Z,2.53
2023-05-03T18:13:40.460Z,2.60
2023-05-03T18:16:08.645Z,2.37
2023-05-03T18:18:36.591Z,3.03
2023-05-03T18:21:05.034Z,2.17
2023-05-03T18:23:33.717Z,2.60
2023-05-03T18:26:01.821Z,2.72
2023-05-03T18:28:29.914Z,2.67
2023-05-03T18:30:57.560Z,2.60
2023-05-03T18:33:25.779Z,2.78
2023-05-03T18:35:53.711Z,2.60
2023-05-03T18:38:22.085Z,2.87
2023-05-03T18:40:50.603Z,2.37
2023-05-03T18:43:18.727Z,2.42
2023-05-03T18:45:47.076Z,2.67
2023-05-03T18:48:16.916Z,2.97
2023-05-03T18:50:45.734Z,2.65
2023-05-03T18:53:17.423Z,2.90
2023-05-03T18:55:52.663Z,2.58
2023-05-03T18:58:21.367Z,2.62
2023-05-03T19:00:51.364Z,2.87
2023-05-03T19:03:21.663Z,2.70
2023-05-03T19:05:50.653Z,2.65
2023-05-03T19:08:19.220Z,3.10
2023-05-03T19:10:47.503Z,2.92
2023-05-03T19:13:17.022Z,2.72
2023-05-03T19:15:45.449Z,2.35
2023-05-03T19:21:21.876Z,2.55
2023-05-03T19:23:50.830Z,2.75
2023-05-03T19:26:18.852Z,2.37
2023-05-03T19:29:07.987Z,2.45
2023-05-03T19:31:35.882Z,2.72
2023-05-03T19:34:04.551Z,2.42
2023-05-03T19:36:32.493Z,2.47
2023-05-03T19:39:01.819Z,3.00
2023-05-03T19:41:30.421Z,2.75
2023-05-03T19:43:58.522Z,3.10
2023-05-03T19:46:28.961Z,3.17
2023-05-03T19:48:57.445Z,2.83
2023-05-03T19:51:26.434Z,2.70
2023-05-03T19:53:54.289Z,2.90
2023-05-03T19:56:22.074Z,2.83
2023-05-03T19:58:51.387Z,2.65
2023-05-03T20:01:19.927Z,2.97
2023-05-03T20:03:48.148Z,3.17
2023-05-03T20:06:16.225Z,2.65
2023-05-03T20:08:44.124Z,2.80
2023-05-03T20:11:11.828Z,2.72
2023-05-03T20:13:39.516Z,3.00
2023-05-03T20:16:08.749Z,2.40
2023-05-03T20:18:37.222Z,2.67
2023-05-03T20:21:05.180Z,2.53
2023-05-03T20:23:32.631Z,2.85
2023-05-03T20:26:01.909Z,2.40
2023-05-03T20:28:32.227Z,2.57
2023-05-03T20:31:00.008Z,2.75
2023-05-03T20:33:27.832Z,2.25
2023-05-03T20:35:55.297Z,2.25
2023-05-03T20:38:23.081Z,2.37
2023-05-03T20:40:51.053Z,2.40
2023-05-03T20:43:18.650Z,3.22
2023-05-03T20:45:46.556Z,2.58
2023-05-03T20:48:14.186Z,2.60
2023-05-03T20:50:41.628Z,2.80
2023-05-03T20:53:09.361Z,2.83
2023-05-03T20:55:36.951Z,2.60
2023-05-03T20:58:04.366Z,2.62
2023-05-03T21:00:32.091Z,2.30
2023-05-03T21:02:59.744Z,2.62
2023-05-03T21:05:27.322Z,2.45
2023-05-03T21:07:55.052Z,2.60
2023-05-03T21:10:22.459Z,2.17
2023-05-03T21:12:49.894Z,2.17
2023-05-03T21:15:17.646Z,2.50
2023-05-03T21:17:45.195Z,2.80
2023-05-03T21:20:12.980Z,2.70
2023-05-03T21:22:40.772Z,2.37
2023-05-03T21:25:08.782Z,2.40
2023-05-03T21:27:36.243Z,2.60
2023-05-03T21:30:04.474Z,2.50
2023-05-03T21:32:33.281Z,2.60
2023-05-03T21:35:00.738Z,2.70
2023-05-03T21:37:28.442Z,2.12
2023-05-03T21:40:01.991Z,2.62
2023-05-03T21:42:30.700Z,2.33
2023-05-03T21:44:58.109Z,2.90
2023-05-03T21:47:27.618Z,2.62
2023-05-03T21:49:55.573Z,2.70
2023-05-03T21:52:23.228Z,2.58
2023-05-03T21:54:52.109Z,2.53
2023-05-03T21:57:19.840Z,2.58
2023-05-03T21:59:47.425Z,2.50
2023-05-03T22:02:14.878Z,2.50
2023-05-03T22:04:43.507Z,2.30
2023-05-03T22:07:10.881Z,2.33
2023-05-03T22:09:39.360Z,2.55
2023-05-03T22:12:22.596Z,2.60
2023-05-03T22:14:52.123Z,2.60
2023-05-03T22:17:19.798Z,1.98
2023-05-03T22:19:47.206Z,2.30
2023-05-03T22:22:14.626Z,2.50
2023-05-03T22:24:42.439Z,2.30
2023-05-03T22:27:09.880Z,2.40
2023-05-03T22:29:37.481Z,2.60
2023-05-03T22:32:06.659Z,2.90
2023-05-03T22:34:34.392Z,2.30
2023-05-03T22:37:02.022Z,2.80
2023-05-03T22:39:29.761Z,2.40
2023-05-03T22:41:57.170Z,2.40
2023-05-03T22:44:24.559Z,2.15
2023-05-03T22:46:52.230Z,2.45
2023-05-03T22:49:20.115Z,2.33
2023-05-03T22:51:47.521Z,2.33
2023-05-03T22:54:15.536Z,2.08
2023-05-03T22:56:43.103Z,2.22
2023-05-03T22:59:11.844Z,2.53
2023-05-03T23:01:40.090Z,2.53
2023-05-03T23:04:07.675Z,2.83
2023-05-03T23:06:35.095Z,2.65
2023-05-03T23:09:02.810Z,2.53
2023-05-03T23:11:30.200Z,2.60
2023-05-03T23:13:57.639Z,2.85
2023-05-03T23:16:25.378Z,2.30
2023-05-03T23:18:55.515Z,2.50
2023-05-03T23:21:23.524Z,2.20
2023-05-03T23:23:51.178Z,2.83
2023-05-03T23:26:18.623Z,2.85
2023-05-03T23:28:46.362Z,2.78
2023-05-03T23:31:14.544Z,2.92
2023-05-03T23:33:42.556Z,3.45
2023-05-03T23:36:10.007Z,2.62
2023-05-03T23:38:37.703Z,2.85
2023-05-03T23:41:05.242Z,3.03
2023-05-03T23:43:32.658Z,3.03
2023-05-03T23:46:00.397Z,3.10
2023-05-03T23:48:27.774Z,3.00
2023-05-03T23:50:55.197Z,2.47
2023-05-03T23:53:22.923Z,3.20
2023-05-03T23:55:50.518Z,2.95
2023-05-03T23:58:17.888Z,2.90
